RJNY 
Shizuhama Airport
Japan 
ICAOStatus
RJNYOperational
LatitudeLongitude
34° 48' 46" N138° 17' 52" E
34.812801138.298004
Local Time (DST+9)UTC (GMT+9)
04-23-2014 08:47 pm04-23-2014 11:47
Sunrise-SunsetLocalUTC
Begin Civil Twilight04:37 am19:37
Sunrise05:04 am20:04
Sunset06:26 pm09:26
End Civil Twilight06:52 pm09:52

Current Weather

METARObservedFlight Conditions

RJNY 231004Z 21004KT 9999 FEW025 BKN100 14/09 Q1016

Wed, Apr 23, 2014 @ 10:04 UTC(Z)

(1 Hour, 43 Minutes ago)

VFR

(Visual Flight Rules)

WindVisibilityCloudsConditions
210° at 4 knots (7 kph)
10 km or more
  • Few at 2,500' AGL
  • Broken at 10,000' AGL
  • No significant weather
TemperaturesReadingsPrecipitation
Current Temp14°C (57°F)
Dewpoint9°C (48°F)
Humidity72%
Altimeter30"Hg
Sea Level Pressure1016mb
Field Elevation32.81'
None Recorded

Additional weather within a 92.6km radius of RJNY

Location METAR
rjns

10.2km W (259°)

47 minutes ago
RJAT

76.7km N (043°)

5 hours, 3 minutes ago
VFR VFR    MVFR MVFR    IFR IFR    LIFR LIFR    Unknown Unknown

Previous 24 hour Weather Graphs

  Loading...

CheckWX.com is intended as a tool to help pilots better visualize weather data.   It is not intended as a substitute for an official weather briefing obtained from a Flight Service Station.
CheckWX.com does not meet the FAA requirements for an official pre-flight weather briefing.   Therefore, it's important that pilots still call and obtain an official FSS pre-flight weather briefing.